메인 페이지
METAR-TAF:

METAR-TAF

공항 :

타이위안, 중국

위도: 37-47N, 경도: 112-33E, 고도: 779m

현재 날씨관측

예보는 15분 전, 17:30시(UTC)에 발표되었습니다.
남동2kt
온도 13°C
습도 72%
기압 1012 hPa
시정 10km 이상
1500m 미만 상공 구름 및 적란운 없음

METAR: ZBYN 311730Z 14001MPS CAVOK 13/08 Q1012 NOSIG

시각: 01:45 (17:45 UTC)

예보

예보는 2 시간 39분 전, 15:06시(UTC)에 발표되었습니다.
예보 대상 시간: 31일 18시부터 01일 18시까지 (UTC)
8kt
시정: 6000m
일시적
01일 06시부터 01일 10시까지 (UTC)
고도 3000ft 상공 구름 조금, 적란운.
고도 4000ft 상공 구름 보통
뇌우, 약한비

TAF: ZBYN 311506Z 3118/0118 09004MPS 6000 NSC TX29/0107Z TN10/3121Z TEMPO 0106/0110 -TSRA FEW030CB SCT040

4,000개 이상의 공항 관측 자료 및 예보 (METAR 및 TAF 보고).

지도상에서 검색 가능한 기상관측소가 노란 점과 빨간 점으로 표시되어 있습니다.

기상관측소 명을 보려면 표시 위로 마우스를 이동하세요.

날씨 관측과 예보를 보려면 클릭하세요.

지도 변경 : 확대하려면 엑스 표시가 있는 녹색 버튼, 축소하려면 빼기 표시가 있는 녹색 버튼, 다음 페이지의 지도를 보려면 녹색 화살표를 클릭하세요.


METAR-TAF: